Archival Weather

NSFA McMurdo Sound

NSFA McMurdo Sound, Antarctica (NZCM)

Report from: Friday, September 23, 2022 8:42 AM UTC
Current time: Sunday, December 4, 2022 11:43 AM UTC

Current weather
Weather history
Weather forecast

Present weatherLight snow, mist
Temperature-20.3°C (-4.5°F)
Wind chill-32.5°C (-26.5°F)
Dew point-24.4°C (-11.9°F)
Winds 15 kts (7.7 m/s, 17.3 mph) Vrb
Wind gusts 22 kts (11.3 m/s, 25.3 mph)
Winds variableWinds variable from East (80°) to South (190°)
Peak wind 29 kts (14.9 m/s, 33.4 mph) East-Southeast (120°) at 03:11
Visibility1.5 mi. (2.4 km)
Clouds Ceiling: Overcast 1,600 ft. (488 m)
Altimeter28.67 in.Hg (971 mB)
Precip. events Snow ended 8:18 AM
Snow began 8:25 AM
Snow ended 8:38 AM
Snow began 8:42 AM
Relative humidity70 %
Density altitude-3,007 ft. (-917 m)
Sea-level pressure107.1 kPa (1071 mB, 31.64 in.Hg)
Remarks Fully automated report
System requires maintenance
Special weather observation
Automated weather observing station with precipitation discriminator
Flight conditions Instrument Meteorological Conditions
Raw dataSPECI NZCM 230842Z AUTO 13015G22KT 080V190 2400 -SN BR OVC016 M20/M24 A2867 RMK AO2 PK WND 12029/0811 SNE0818B0825E0838B0842 SLP714 T12031244 $
An error has occurred. This application may no longer respond until reloaded. Reload 🗙